Messwerte Litchfield

Temperatur

Temperatur
°C
1623481200 2.00 2.00
1623484800 3.00 3.00 19
1623488400 4.00 4.00
1623492000 5.00 5.00 18
1623495600 6.00 6.00
1623499200 7.00 7.00 18
1623502800 8.00 8.00 21
1623506400 9.00 9.00 23
1623510000 10.00 10.00 25
1623513600 11.00 11.00 26
1623517200 12.00 12.00 27
1623520800 13.00 13.00
1623524400 14.00 14.00
1623528000 15.00 15.00 29
1623531600 16.00 16.00 30
1623535200 17.00 17.00 30
1623538800 18.00 18.00 29
1623542400 19.00 19.00 29
1623546000 20.00 20.00 28
1623549600 21.00 21.00 25
1623553200 22.00 22.00 22
1623556800 23.00 23.00 19
1623560400 0.00 0.00 18
1623564000 1.00 1.00 17

Aktuellste Messwerte

Wettercharakter
Wetter: klar
Temperatur
17 °C
Feuchtigkeit
60 %
Wind
0 km/h, -
Luftdruck
1017 hPa
Messzeit: 13. Juni 2021, 2.00Datenquelle: METAR

Weitere Messstationen in der Nähe

Messstation Temperatur Entfernung
Hutchinson 15 °C 29 km
Paynesville 13 °C 35 km
Maple Lake 14 °C 44 km
Glencoe 14 °C 51 km
Buffalo 14 °C 53 km
Olivia 16 °C 54 km
St. Cloud 13 °C 61 km

Wind

Windrichtung Böen Mittelwind
° km/h km/h
1623481200 2.00 1.00 - 2.00
1623484800 3.00 2.00 - 3.00 290° 10
1623488400 4.00 3.00 - 4.00
1623492000 5.00 4.00 - 5.00 300° 5
1623495600 6.00 5.00 - 6.00
1623499200 7.00 6.00 - 7.00 0
1623502800 8.00 7.00 - 8.00 270° 5
1623506400 9.00 8.00 - 9.00 270° 5
1623510000 10.00 9.00 - 10.00 270° 15
1623513600 11.00 10.00 - 11.00 300° 15
1623517200 12.00 11.00 - 12.00 300° 20
1623520800 13.00 12.00 - 13.00
1623524400 14.00 13.00 - 14.00
1623528000 15.00 14.00 - 15.00 300° 35 20
1623531600 16.00 15.00 - 16.00 300° 30 20
1623535200 17.00 16.00 - 17.00 320° 30 15
1623538800 18.00 17.00 - 18.00 320° 25 20
1623542400 19.00 18.00 - 19.00 310° 15
1623546000 20.00 19.00 - 20.00 320° 10
1623549600 21.00 20.00 - 21.00 330° 5
1623553200 22.00 21.00 - 22.00 0
1623556800 23.00 22.00 - 23.00 0
1623560400 0.00 23.00 - 0.00 0
1623564000 1.00 0.00 - 1.00 0

Ihre Wetterstation

Fehlt Ihre Wetterstation auf unserem Portal?

Schreiben Sie an network@meteonews.ch

Klima

Wann ist es am wärmsten? Wann regnet es am wenigsten? Unsere Klimadaten geben Auskunft.